URO601 KMIA-KORD
Flight info
| Callsign | URO601 |
|---|---|
| Flight time | 1h 23m |
| Altitude | 36000 |
| Route | HURCN4 KPASA Q118 HEVAN BONNT VEECK5 |
| Aircraft | A346/H-SDE2E3FGHIJ3J4J5M1RWXY/LB1D1 |
Departure
| Time | 2026-04-30 11:48 |
|---|---|
| Airport | Miami International Airport (KMIA) |
Arrival
| Time | 2026-04-30 13:12 |
|---|---|
| Airport | Chicago O'Hare International Airport (KORD) |
| Time | Latitude | Longitude | Altitude | Speed | Heading |
|---|---|---|---|---|---|
| 2026-04-30 11:48 | 25.92021 | -80.48269 | 9231 ft | 290 kts | 335° |
| 2026-04-30 11:48 | 25.93900 | -80.49212 | 10027 ft | 292 kts | 335° |
| 2026-04-30 11:48 | 25.95809 | -80.50177 | 10702 ft | 301 kts | 335° |
| 2026-04-30 11:49 | 25.97784 | -80.51177 | 11120 ft | 318 kts | 335° |
| 2026-04-30 11:49 | 25.99904 | -80.52255 | 11497 ft | 337 kts | 334° |
| 2026-04-30 11:49 | 26.02123 | -80.53386 | 11858 ft | 355 kts | 334° |
| 2026-04-30 11:49 | 26.04433 | -80.54567 | 12222 ft | 372 kts | 334° |
| 2026-04-30 11:50 | 26.06869 | -80.55816 | 12871 ft | 380 kts | 334° |
| 2026-04-30 11:50 | 26.09315 | -80.57069 | 13702 ft | 383 kts | 334° |
| 2026-04-30 11:50 | 26.11741 | -80.58311 | 14487 ft | 386 kts | 334° |
| 2026-04-30 11:50 | 26.14294 | -80.59605 | 15248 ft | 391 kts | 335° |
| 2026-04-30 11:51 | 26.16828 | -80.60825 | 15974 ft | 395 kts | 335° |
| 2026-04-30 11:51 | 26.19431 | -80.62061 | 16700 ft | 399 kts | 335° |
| 2026-04-30 11:51 | 26.22034 | -80.63298 | 17396 ft | 403 kts | 335° |
| 2026-04-30 11:51 | 26.24637 | -80.64538 | 18060 ft | 407 kts | 335° |
| 2026-04-30 11:52 | 26.27300 | -80.65810 | 18735 ft | 410 kts | 335° |
| 2026-04-30 11:52 | 26.29972 | -80.67087 | 19392 ft | 413 kts | 335° |
| 2026-04-30 11:52 | 26.32625 | -80.68359 | 20040 ft | 416 kts | 335° |
| 2026-04-30 11:52 | 26.35391 | -80.69685 | 20695 ft | 419 kts | 335° |
| 2026-04-30 11:53 | 26.38051 | -80.71106 | 21311 ft | 420 kts | 329° |
| 2026-04-30 11:53 | 26.40548 | -80.72933 | 21916 ft | 422 kts | 322° |
| 2026-04-30 11:53 | 26.42798 | -80.75110 | 22496 ft | 424 kts | 315° |
| 2026-04-30 11:53 | 26.44855 | -80.77518 | 23042 ft | 427 kts | 313° |
| 2026-04-30 11:54 | 26.46900 | -80.79994 | 23555 ft | 430 kts | 312° |
| 2026-04-30 11:54 | 26.48937 | -80.82440 | 24063 ft | 433 kts | 314° |
| 2026-04-30 11:54 | 26.51127 | -80.84843 | 24558 ft | 436 kts | 316° |
| 2026-04-30 11:54 | 26.53425 | -80.87116 | 25030 ft | 440 kts | 319° |
| 2026-04-30 11:55 | 26.55811 | -80.89314 | 25487 ft | 443 kts | 320° |
| 2026-04-30 11:55 | 26.58242 | -80.91528 | 25935 ft | 447 kts | 320° |
| 2026-04-30 11:55 | 26.60700 | -80.93759 | 26364 ft | 451 kts | 320° |
| 2026-04-30 11:55 | 26.63199 | -80.96029 | 26785 ft | 455 kts | 320° |
| 2026-04-30 11:56 | 26.65679 | -80.98283 | 27216 ft | 458 kts | 320° |
| 2026-04-30 11:56 | 26.68200 | -81.00576 | 27646 ft | 461 kts | 320° |
| 2026-04-30 11:56 | 26.70743 | -81.02892 | 28060 ft | 465 kts | 320° |
| 2026-04-30 11:56 | 26.73275 | -81.05199 | 28472 ft | 468 kts | 320° |
| 2026-04-30 11:57 | 26.75840 | -81.07537 | 28933 ft | 470 kts | 320° |
| 2026-04-30 11:57 | 26.78406 | -81.09879 | 29552 ft | 468 kts | 320° |
| 2026-04-30 11:57 | 26.80925 | -81.12178 | 30192 ft | 466 kts | 320° |
| 2026-04-30 11:57 | 26.83496 | -81.14526 | 30780 ft | 465 kts | 320° |
| 2026-04-30 11:58 | 26.86029 | -81.16841 | 31407 ft | 462 kts | 320° |
| 2026-04-30 11:58 | 26.88558 | -81.19152 | 32084 ft | 459 kts | 320° |
| 2026-04-30 11:58 | 26.91058 | -81.21439 | 32756 ft | 455 kts | 320° |
| 2026-04-30 11:58 | 26.93508 | -81.23681 | 33399 ft | 451 kts | 320° |
| 2026-04-30 11:59 | 26.96008 | -81.25971 | 34072 ft | 447 kts | 320° |
| 2026-04-30 11:59 | 26.98444 | -81.28204 | 34681 ft | 444 kts | 320° |
| 2026-04-30 11:59 | 27.00912 | -81.30457 | 35123 ft | 445 kts | 320° |
| 2026-04-30 11:59 | 27.03430 | -81.32590 | 35412 ft | 448 kts | 323° |
| 2026-04-30 12:00 | 27.06043 | -81.34584 | 35699 ft | 451 kts | 326° |
| 2026-04-30 12:00 | 27.08753 | -81.36437 | 35963 ft | 453 kts | 328° |
| 2026-04-30 12:00 | 27.14319 | -81.39990 | 35992 ft | 453 kts | 328° |
| 2026-04-30 12:01 | 27.19881 | -81.43513 | 35992 ft | 453 kts | 328° |
| 2026-04-30 12:01 | 27.25396 | -81.47013 | 35990 ft | 452 kts | 328° |
| 2026-04-30 12:02 | 27.30980 | -81.50555 | 35992 ft | 452 kts | 329° |
| 2026-04-30 12:02 | 27.36726 | -81.53677 | 35995 ft | 453 kts | 335° |
| 2026-04-30 12:03 | 27.45549 | -81.57727 | 35999 ft | 445 kts | 336° |
| 2026-04-30 12:04 | 27.51291 | -81.60337 | 36001 ft | 443 kts | 336° |
| 2026-04-30 12:04 | 27.57109 | -81.62989 | 35992 ft | 442 kts | 336° |
| 2026-04-30 12:05 | 27.62904 | -81.65636 | 35995 ft | 442 kts | 336° |
| 2026-04-30 12:05 | 27.68708 | -81.68291 | 35989 ft | 441 kts | 335° |
| 2026-04-30 12:06 | 27.74421 | -81.70908 | 35984 ft | 440 kts | 335° |
| 2026-04-30 12:06 | 27.80214 | -81.73565 | 35993 ft | 440 kts | 335° |
| 2026-04-30 12:07 | 27.85971 | -81.76207 | 35991 ft | 440 kts | 335° |
| 2026-04-30 12:07 | 27.91748 | -81.78860 | 35991 ft | 440 kts | 335° |
| 2026-04-30 12:08 | 27.97488 | -81.81502 | 35991 ft | 440 kts | 335° |
| 2026-04-30 12:08 | 28.03280 | -81.84168 | 35993 ft | 439 kts | 335° |
| 2026-04-30 12:09 | 28.09038 | -81.86823 | 35991 ft | 439 kts | 335° |
| 2026-04-30 12:09 | 28.14718 | -81.89614 | 35995 ft | 437 kts | 332° |
| 2026-04-30 12:10 | 28.20145 | -81.92982 | 35991 ft | 436 kts | 327° |
| 2026-04-30 12:10 | 28.25278 | -81.96861 | 35995 ft | 436 kts | 324° |
| 2026-04-30 12:11 | 28.30348 | -82.00863 | 35996 ft | 436 kts | 324° |
| 2026-04-30 12:11 | 28.35351 | -82.04822 | 35991 ft | 435 kts | 324° |
| 2026-04-30 12:12 | 28.40387 | -82.08813 | 35991 ft | 435 kts | 324° |
| 2026-04-30 12:12 | 28.45446 | -82.12827 | 35985 ft | 434 kts | 323° |
| 2026-04-30 12:13 | 28.50419 | -82.16782 | 35995 ft | 434 kts | 323° |
| 2026-04-30 12:13 | 28.55487 | -82.20821 | 35985 ft | 433 kts | 323° |
| 2026-04-30 12:14 | 28.60475 | -82.24800 | 35988 ft | 432 kts | 323° |
| 2026-04-30 12:14 | 28.75401 | -82.36729 | 35995 ft | 430 kts | 323° |
| 2026-04-30 12:15 | 28.99464 | -82.56044 | 35987 ft | 427 kts | 322° |
| 2026-04-30 12:15 | 29.23218 | -82.75220 | 35975 ft | 424 kts | 322° |
| 2026-04-30 12:16 | 29.46634 | -82.94215 | 35949 ft | 422 kts | 323° |
| 2026-04-30 12:16 | 29.68079 | -83.06151 | 35936 ft | 427 kts | 333° |
| 2026-04-30 12:17 | 30.08096 | -83.25304 | 35945 ft | 425 kts | 332° |
| 2026-04-30 12:17 | 30.39106 | -83.40278 | 35947 ft | 422 kts | 332° |
| 2026-04-30 12:18 | 30.61132 | -83.50967 | 35940 ft | 420 kts | 332° |
| 2026-04-30 12:18 | 30.87668 | -83.63910 | 35939 ft | 419 kts | 331° |
| 2026-04-30 12:19 | 31.13612 | -83.76639 | 35939 ft | 416 kts | 331° |
| 2026-04-30 12:19 | 31.39475 | -83.89402 | 35946 ft | 412 kts | 330° |
| 2026-04-30 12:20 | 31.66243 | -83.98882 | 35950 ft | 421 kts | 340° |
| 2026-04-30 12:20 | 31.94336 | -84.05129 | 35941 ft | 418 kts | 340° |
| 2026-04-30 12:21 | 32.22013 | -84.11335 | 35922 ft | 419 kts | 340° |
| 2026-04-30 12:21 | 32.50029 | -84.17653 | 35938 ft | 419 kts | 340° |
| 2026-04-30 12:22 | 32.77913 | -84.23984 | 35947 ft | 419 kts | 339° |
| 2026-04-30 12:22 | 33.05870 | -84.30370 | 35957 ft | 420 kts | 338° |
| 2026-04-30 12:23 | 33.33615 | -84.36749 | 35955 ft | 420 kts | 337° |
| 2026-04-30 12:23 | 33.54468 | -84.41568 | 35952 ft | 422 kts | 336° |
| 2026-04-30 12:24 | 33.70662 | -84.45244 | 35910 ft | 423 kts | 337° |
| 2026-04-30 12:24 | 33.84154 | -84.48205 | 35934 ft | 425 kts | 337° |
| 2026-04-30 12:25 | 33.99835 | -84.51662 | 35910 ft | 424 kts | 336° |
| 2026-04-30 12:25 | 34.07160 | -84.52821 | 35930 ft | 436 kts | 341° |
| 2026-04-30 12:25 | 34.15449 | -84.53685 | 35938 ft | 437 kts | 341° |
| 2026-04-30 12:26 | 34.31053 | -84.55310 | 35929 ft | 437 kts | 341° |
| 2026-04-30 12:26 | 34.45274 | -84.56805 | 35927 ft | 438 kts | 341° |
| 2026-04-30 12:27 | 34.60142 | -84.58374 | 35926 ft | 438 kts | 342° |
| 2026-04-30 12:27 | 34.74999 | -84.59948 | 35930 ft | 439 kts | 342° |
| 2026-04-30 12:28 | 34.90130 | -84.61557 | 35949 ft | 441 kts | 342° |
| 2026-04-30 12:28 | 35.04735 | -84.63115 | 35971 ft | 442 kts | 342° |
| 2026-04-30 12:29 | 35.19403 | -84.64686 | 35978 ft | 445 kts | 342° |
| 2026-04-30 12:29 | 35.35092 | -84.66373 | 35993 ft | 448 kts | 342° |
| 2026-04-30 12:30 | 35.50907 | -84.68077 | 36003 ft | 449 kts | 342° |
| 2026-04-30 12:30 | 35.66840 | -84.69804 | 36010 ft | 451 kts | 343° |
| 2026-04-30 12:31 | 35.81428 | -84.71389 | 36015 ft | 453 kts | 343° |
| 2026-04-30 12:31 | 35.95949 | -84.72971 | 36022 ft | 453 kts | 343° |
| 2026-04-30 12:32 | 36.10709 | -84.74593 | 36026 ft | 455 kts | 343° |
| 2026-04-30 12:32 | 36.26458 | -84.76314 | 36051 ft | 456 kts | 343° |
| 2026-04-30 12:33 | 36.42147 | -84.77933 | 36053 ft | 461 kts | 346° |
| 2026-04-30 12:33 | 36.58038 | -84.77624 | 36061 ft | 467 kts | 350° |
| 2026-04-30 12:34 | 36.73373 | -84.77162 | 36071 ft | 467 kts | 350° |
| 2026-04-30 12:34 | 36.88469 | -84.76721 | 36088 ft | 467 kts | 350° |
| 2026-04-30 12:35 | 37.03621 | -84.76274 | 36079 ft | 467 kts | 350° |
| 2026-04-30 12:35 | 37.19390 | -84.75806 | 36076 ft | 468 kts | 350° |
| 2026-04-30 12:36 | 37.34657 | -84.75347 | 36082 ft | 468 kts | 350° |
| 2026-04-30 12:36 | 37.49914 | -84.74854 | 36090 ft | 468 kts | 351° |
| 2026-04-30 12:37 | 37.65269 | -84.74345 | 36095 ft | 469 kts | 351° |
| 2026-04-30 12:37 | 37.81532 | -84.73834 | 36091 ft | 468 kts | 351° |
| 2026-04-30 12:38 | 37.97729 | -84.73338 | 36077 ft | 469 kts | 351° |
| 2026-04-30 12:38 | 38.13949 | -84.72833 | 36070 ft | 470 kts | 351° |
| 2026-04-30 12:39 | 38.30454 | -84.72306 | 36075 ft | 470 kts | 351° |
| 2026-04-30 12:39 | 38.46920 | -84.73069 | 36077 ft | 455 kts | 341° |
| 2026-04-30 12:40 | 38.63123 | -84.79164 | 36072 ft | 442 kts | 331° |
| 2026-04-30 12:40 | 38.78824 | -84.86494 | 36074 ft | 443 kts | 331° |
| 2026-04-30 12:41 | 38.94506 | -84.93811 | 36066 ft | 444 kts | 331° |
| 2026-04-30 12:41 | 39.09440 | -85.00819 | 36071 ft | 444 kts | 331° |
| 2026-04-30 12:42 | 39.25054 | -85.08169 | 36078 ft | 445 kts | 332° |
| 2026-04-30 12:42 | 39.39994 | -85.15238 | 36076 ft | 444 kts | 332° |
| 2026-04-30 12:43 | 39.53459 | -85.21640 | 36075 ft | 444 kts | 332° |
| 2026-04-30 12:43 | 39.69628 | -85.29353 | 36071 ft | 444 kts | 332° |
| 2026-04-30 12:44 | 39.86682 | -85.37531 | 36079 ft | 444 kts | 332° |
| 2026-04-30 12:44 | 40.01493 | -85.44669 | 36079 ft | 443 kts | 332° |
| 2026-04-30 12:45 | 40.16940 | -85.52148 | 36086 ft | 445 kts | 332° |
| 2026-04-30 12:45 | 40.31206 | -85.59085 | 36087 ft | 445 kts | 332° |
| 2026-04-30 12:46 | 40.45452 | -85.66041 | 36089 ft | 445 kts | 332° |
| 2026-04-30 12:46 | 40.56417 | -85.71476 | 36095 ft | 446 kts | 331° |
| 2026-04-30 12:47 | 40.62328 | -85.74451 | 36095 ft | 447 kts | 331° |
| 2026-04-30 12:47 | 40.67778 | -85.78293 | 35854 ft | 432 kts | 316° |
| 2026-04-30 12:48 | 40.70037 | -85.80922 | 35601 ft | 424 kts | 309° |
| 2026-04-30 12:48 | 40.72000 | -85.83773 | 35355 ft | 419 kts | 306° |
| 2026-04-30 12:48 | 40.73957 | -85.86721 | 35099 ft | 416 kts | 306° |
| 2026-04-30 12:48 | 40.75871 | -85.89618 | 34843 ft | 413 kts | 306° |
| 2026-04-30 12:49 | 40.77735 | -85.92443 | 34596 ft | 412 kts | 306° |
| 2026-04-30 12:49 | 40.79618 | -85.95297 | 34344 ft | 411 kts | 306° |
| 2026-04-30 12:49 | 40.81555 | -85.98232 | 34052 ft | 411 kts | 306° |
| 2026-04-30 12:49 | 40.83464 | -86.01125 | 33583 ft | 411 kts | 306° |
| 2026-04-30 12:50 | 40.85381 | -86.04029 | 32971 ft | 411 kts | 306° |
| 2026-04-30 12:50 | 40.87274 | -86.06902 | 32306 ft | 412 kts | 306° |
| 2026-04-30 12:50 | 40.89196 | -86.09821 | 31563 ft | 413 kts | 306° |
| 2026-04-30 12:50 | 40.91136 | -86.12768 | 30761 ft | 416 kts | 306° |
| 2026-04-30 12:51 | 40.93069 | -86.15709 | 29818 ft | 422 kts | 306° |
| 2026-04-30 12:51 | 40.95019 | -86.18680 | 29156 ft | 421 kts | 306° |
| 2026-04-30 12:51 | 40.96980 | -86.21665 | 28473 ft | 420 kts | 307° |
| 2026-04-30 12:51 | 40.98914 | -86.24612 | 27814 ft | 418 kts | 307° |
| 2026-04-30 12:52 | 41.00844 | -86.27556 | 27135 ft | 417 kts | 307° |
| 2026-04-30 12:52 | 41.02773 | -86.30501 | 26475 ft | 415 kts | 307° |
| 2026-04-30 12:52 | 41.04685 | -86.33424 | 25783 ft | 414 kts | 307° |
| 2026-04-30 12:52 | 41.06567 | -86.36303 | 25159 ft | 411 kts | 307° |
| 2026-04-30 12:53 | 41.08462 | -86.39206 | 24568 ft | 407 kts | 307° |
| 2026-04-30 12:53 | 41.10338 | -86.42080 | 24022 ft | 403 kts | 307° |
| 2026-04-30 12:53 | 41.12139 | -86.44842 | 23484 ft | 400 kts | 307° |
| 2026-04-30 12:53 | 41.14029 | -86.47747 | 22930 ft | 395 kts | 307° |
| 2026-04-30 12:54 | 41.15831 | -86.50517 | 22442 ft | 390 kts | 307° |
| 2026-04-30 12:54 | 41.17637 | -86.53296 | 21927 ft | 386 kts | 307° |
| 2026-04-30 12:54 | 41.19409 | -86.56024 | 21440 ft | 382 kts | 307° |
| 2026-04-30 12:54 | 41.21159 | -86.58723 | 20933 ft | 378 kts | 307° |
| 2026-04-30 12:55 | 41.22903 | -86.61415 | 20437 ft | 374 kts | 307° |
| 2026-04-30 12:55 | 41.24611 | -86.64053 | 19961 ft | 371 kts | 308° |
| 2026-04-30 12:55 | 41.26299 | -86.66661 | 19474 ft | 368 kts | 308° |
| 2026-04-30 12:55 | 41.27992 | -86.69281 | 18999 ft | 364 kts | 308° |
| 2026-04-30 12:56 | 41.29651 | -86.71850 | 18525 ft | 361 kts | 308° |
| 2026-04-30 12:56 | 41.31296 | -86.74399 | 18058 ft | 358 kts | 308° |
| 2026-04-30 12:56 | 41.32935 | -86.76944 | 17569 ft | 355 kts | 308° |
| 2026-04-30 12:56 | 41.34561 | -86.79471 | 17100 ft | 353 kts | 308° |
| 2026-04-30 12:57 | 41.36183 | -86.81989 | 16625 ft | 350 kts | 308° |
| 2026-04-30 12:57 | 41.37778 | -86.84470 | 16152 ft | 348 kts | 308° |
| 2026-04-30 12:57 | 41.39341 | -86.86903 | 15722 ft | 345 kts | 309° |
| 2026-04-30 12:57 | 41.40935 | -86.89386 | 15264 ft | 342 kts | 309° |
| 2026-04-30 12:58 | 41.42497 | -86.91820 | 14812 ft | 340 kts | 309° |
| 2026-04-30 12:58 | 41.44042 | -86.94231 | 14385 ft | 337 kts | 309° |
| 2026-04-30 12:58 | 41.45590 | -86.96647 | 13962 ft | 334 kts | 309° |
| 2026-04-30 12:58 | 41.47110 | -86.99022 | 13542 ft | 331 kts | 309° |
| 2026-04-30 12:59 | 41.48612 | -87.01374 | 13094 ft | 328 kts | 309° |
| 2026-04-30 12:59 | 41.50118 | -87.03731 | 12658 ft | 325 kts | 310° |
| 2026-04-30 12:59 | 41.51596 | -87.06044 | 12240 ft | 323 kts | 310° |
| 2026-04-30 12:59 | 41.53071 | -87.08356 | 11795 ft | 320 kts | 310° |
| 2026-04-30 13:00 | 41.54540 | -87.10659 | 11372 ft | 317 kts | 310° |
| 2026-04-30 13:00 | 41.55984 | -87.12925 | 10926 ft | 315 kts | 310° |
| 2026-04-30 13:00 | 41.57389 | -87.15133 | 10612 ft | 308 kts | 310° |
| 2026-04-30 13:00 | 41.58782 | -87.17323 | 10453 ft | 296 kts | 310° |
| 2026-04-30 13:01 | 41.60099 | -87.19395 | 10338 ft | 283 kts | 310° |
| 2026-04-30 13:01 | 41.61366 | -87.21387 | 10266 ft | 270 kts | 310° |
| 2026-04-30 13:01 | 41.62570 | -87.23282 | 10207 ft | 256 kts | 310° |
| 2026-04-30 13:01 | 41.63713 | -87.25082 | 10170 ft | 245 kts | 310° |
| 2026-04-30 13:02 | 41.64825 | -87.26834 | 10124 ft | 240 kts | 310° |
| 2026-04-30 13:02 | 41.65925 | -87.28568 | 9786 ft | 243 kts | 310° |
| 2026-04-30 13:02 | 41.67034 | -87.30320 | 9458 ft | 243 kts | 310° |
| 2026-04-30 13:02 | 41.68148 | -87.32081 | 9121 ft | 243 kts | 311° |
| 2026-04-30 13:03 | 41.69256 | -87.33833 | 8778 ft | 245 kts | 311° |
| 2026-04-30 13:03 | 41.69993 | -87.34998 | 8549 ft | 245 kts | 311° |
| 2026-04-30 13:03 | 41.71116 | -87.36773 | 8232 ft | 245 kts | 311° |
| 2026-04-30 13:03 | 41.72617 | -87.39151 | 7816 ft | 245 kts | 311° |
| 2026-04-30 13:04 | 41.73356 | -87.40321 | 7620 ft | 244 kts | 311° |
| 2026-04-30 13:04 | 41.74406 | -87.41985 | 7343 ft | 243 kts | 311° |
| 2026-04-30 13:04 | 41.75490 | -87.43705 | 7054 ft | 242 kts | 311° |
| 2026-04-30 13:04 | 41.76615 | -87.45490 | 6754 ft | 241 kts | 311° |
| 2026-04-30 13:05 | 41.77714 | -87.47233 | 6459 ft | 240 kts | 311° |
| 2026-04-30 13:05 | 41.78815 | -87.48982 | 6172 ft | 239 kts | 311° |
| 2026-04-30 13:05 | 41.79899 | -87.50707 | 5886 ft | 239 kts | 311° |
| 2026-04-30 13:06 | 41.82075 | -87.54167 | 5295 ft | 238 kts | 310° |
| 2026-04-30 13:06 | 41.83165 | -87.55903 | 5010 ft | 238 kts | 310° |
| 2026-04-30 13:06 | 41.84233 | -87.57607 | 4728 ft | 238 kts | 310° |
| 2026-04-30 13:06 | 41.85305 | -87.59316 | 4442 ft | 238 kts | 310° |
| 2026-04-30 13:07 | 41.86377 | -87.61026 | 4149 ft | 236 kts | 310° |
| 2026-04-30 13:07 | 41.87427 | -87.62700 | 3872 ft | 232 kts | 310° |
| 2026-04-30 13:07 | 41.88488 | -87.64395 | 3649 ft | 228 kts | 310° |
| 2026-04-30 13:07 | 41.89480 | -87.65982 | 3627 ft | 212 kts | 310° |
| 2026-04-30 13:08 | 41.90416 | -87.67480 | 3621 ft | 201 kts | 310° |
| 2026-04-30 13:08 | 41.91330 | -87.68942 | 3626 ft | 201 kts | 310° |
| 2026-04-30 13:08 | 41.92244 | -87.70404 | 3522 ft | 200 kts | 310° |
| 2026-04-30 13:08 | 41.93147 | -87.71850 | 3396 ft | 193 kts | 310° |
| 2026-04-30 13:09 | 41.94007 | -87.73228 | 3212 ft | 187 kts | 310° |
| 2026-04-30 13:09 | 41.94861 | -87.74596 | 2907 ft | 187 kts | 310° |
| 2026-04-30 13:09 | 41.95699 | -87.75922 | 2617 ft | 183 kts | 308° |
| 2026-04-30 13:09 | 41.96518 | -87.77239 | 2364 ft | 177 kts | 302° |
| 2026-04-30 13:10 | 41.96910 | -87.78743 | 2119 ft | 168 kts | 276° |
| 2026-04-30 13:10 | 41.96962 | -87.80310 | 1874 ft | 163 kts | 269° |
| 2026-04-30 13:10 | 41.96932 | -87.81841 | 1640 ft | 158 kts | 269° |
| 2026-04-30 13:10 | 41.96914 | -87.83293 | 1418 ft | 152 kts | 270° |
| 2026-04-30 13:11 | 41.96911 | -87.84735 | 1223 ft | 151 kts | 270° |
| 2026-04-30 13:11 | 41.96910 | -87.86162 | 1024 ft | 151 kts | 270° |
| 2026-04-30 13:11 | 41.96908 | -87.87588 | 823 ft | 150 kts | 270° |
| 2026-04-30 13:11 | 41.96906 | -87.88985 | 673 ft | 132 kts | 270° |
| 2026-04-30 13:12 | 41.96905 | -87.89958 | 679 ft | 75 kts | 270° |
| 2026-04-30 13:12 | 41.96904 | -87.90445 | 676 ft | 28 kts | 269° |
| 2026-04-30 13:12 | 41.96923 | -87.90639 | 677 ft | 15 kts | 295° |
| 2026-04-30 13:13 | 41.97018 | -87.90816 | 678 ft | 11 kts | 308° |
| 2026-04-30 13:13 | 41.97086 | -87.90902 | 679 ft | 20 kts | 319° |
| 2026-04-30 13:13 | 41.97491 | -87.91345 | 677 ft | 38 kts | 328° |
| 2026-04-30 13:14 | 41.97742 | -87.91396 | 675 ft | 36 kts | 356° |
| 2026-04-30 13:14 | 41.97980 | -87.91326 | 678 ft | 34 kts | 23° |
| 2026-04-30 13:14 | 41.98331 | -87.90911 | 676 ft | 32 kts | 42° |
| 2026-04-30 13:15 | 41.98566 | -87.90855 | 676 ft | 48 kts | 6° |
| 2026-04-30 13:15 | 41.99137 | -87.91241 | 678 ft | 0 kts | 311° |
| 2026-04-30 13:15 | 41.99131 | -87.91232 | 679 ft | 0 kts | 311° |